Davenport, IA

7:40 PM CST on February 13, 2016 (GMT -0600)
Davenport Municipal | | Change Station
CLOSE
Current Station
Airport
Location: Davenport,
Elevation: 755 ft
Nearby Weather Stations
Active Advisory: Winter Weather Advisory

Elev 755 ft 41.61 °N, 90.59 °W | Updated 48 minutes ago

Clear
Clear
15 °F
Feels Like 3 °F
N
9
Wind Variable Wind from East

Today
High -- | Low -- °F
--% Chance of Precip.
Yesterday
High -- | Low -- °F
Precip. -- in
Pressure 30.53 in
Visibility 10.0 miles
Clouds Clear
Windchill 3 °F
Dew Point -4 °F
Humidity 43%
Rainfall 0.00 in
Snow Depth Not available.
7:00 AM 5:32 PM
Waxing Crescent, 36% visible
METAR KDVN 140052Z AUTO 08008KT 10SM CLR M09/M20 A3047 RMK AO2 SLP336 T10941200 $
Pressure 30.53 in
Visibility 10.0 miles
Clouds Clear
Windchill 3 °F
Dew Point -4 °F
Humidity 43%
Rainfall 0.00 in
Snow Depth Not available.
7:00 AM 5:32 PM
Waxing Crescent, 36% visible
METAR KDVN 140052Z AUTO 08008KT 10SM CLR M09/M20 A3047 RMK AO2 SLP336 T10941200 $

10-Day Weather Forecast

Almanac

Astronomy

Feb. 13, 2016 Rise Set
Actual Time
Civil Twilight
Nautical Twilight
Astronomical Twilight
Moon
Length of Visible Light
Length of Day
Tomorrow will be .
, % of the Moon is Illuminated

Today's Extremes

State Highs State Lows

Community

WunderPhotos

Upload Photos

1,892,723 photos uploaded!

WunderBlog® & News

Nearby

Air Quality

  Air Quality AQ Index Pollutant
Not available.

Snow Depth

Station Depth Elevation

Earthquake Activity

City Distance Mag. Time & Date
Minimum magnitude displayed is 2.5.

Coastal Water Temperatures

Place Temperature

Stations

Nearby Weather Stations

Station Location Temp. Windchill Dew Point Humidity Wind Precip. Elev Updated Type
                   

Watches & Warnings

Winter Weather Advisory
Issued: 2:45 PM CST Feb. 13, 2016 – National Weather Service

... Winter Weather Advisory remains in effect from 9 PM this
evening to 6 PM CST Sunday...

* timing... late evening and continuing through Sunday.

* Snow accumulations... 3 to 5 inches.

* Wind... southeast 5 to 15 mph with gusts up to 25 mph overnight
and much of Sunday morning.

* Temperatures... 8 to 27 above.

* Impacts... snow covered and hazardous roads and low visibility
in heavier snowfall.

Precautionary/preparedness actions...

A Winter Weather Advisory for snow means that periods of snow will
cause travel difficulties. Be prepared for slick... snow covered roads
and limited visibilities... and be careful while driving.



Nichols